sensor_id;sensor_type;location;lat;lon;timestamp;P1;durP1;ratioP1;P2;durP2;ratioP2
23555;SDS011;11956;53.184;8.578;2022-07-05T00:00:39;4.40;;;2.63;;
23555;SDS011;11956;53.184;8.578;2022-07-05T00:03:40;6.22;;;3.05;;
23555;SDS011;11956;53.184;8.578;2022-07-05T00:06:41;5.35;;;3.13;;
23555;SDS011;11956;53.184;8.578;2022-07-05T00:10:03;5.57;;;2.72;;
23555;SDS011;11956;53.184;8.578;2022-07-05T00:13:05;5.32;;;2.60;;
23555;SDS011;11956;53.184;8.578;2022-07-05T00:16:06;5.70;;;2.97;;
23555;SDS011;11956;53.184;8.578;2022-07-05T00:19:07;3.88;;;2.47;;
23555;SDS011;11956;53.184;8.578;2022-07-05T00:22:08;4.80;;;2.65;;
23555;SDS011;11956;53.184;8.578;2022-07-05T00:25:09;4.70;;;2.83;;
23555;SDS011;11956;53.184;8.578;2022-07-05T00:28:11;3.97;;;2.70;;
23555;SDS011;11956;53.184;8.578;2022-07-05T00:31:13;5.47;;;2.88;;
23555;SDS011;11956;53.184;8.578;2022-07-05T00:34:14;4.32;;;2.70;;
23555;SDS011;11956;53.184;8.578;2022-07-05T00:37:15;5.00;;;2.45;;
23555;SDS011;11956;53.184;8.578;2022-07-05T00:40:18;6.22;;;2.85;;
23555;SDS011;11956;53.184;8.578;2022-07-05T00:43:19;4.35;;;2.80;;
23555;SDS011;11956;53.184;8.578;2022-07-05T00:46:20;5.03;;;2.85;;
23555;SDS011;11956;53.184;8.578;2022-07-05T00:49:21;7.65;;;3.00;;
23555;SDS011;11956;53.184;8.578;2022-07-05T00:52:22;5.07;;;2.90;;
23555;SDS011;11956;53.184;8.578;2022-07-05T00:55:24;3.40;;;3.00;;
23555;SDS011;11956;53.184;8.578;2022-07-05T00:58:25;5.13;;;3.08;;
23555;SDS011;11956;53.184;8.578;2022-07-05T01:01:27;5.88;;;3.63;;
23555;SDS011;11956;53.184;8.578;2022-07-05T01:04:28;4.18;;;3.15;;
23555;SDS011;11956;53.184;8.578;2022-07-05T01:07:29;5.03;;;3.28;;
23555;SDS011;11956;53.184;8.578;2022-07-05T01:10:30;5.53;;;3.53;;
23555;SDS011;11956;53.184;8.578;2022-07-05T01:13:31;5.10;;;3.55;;
23555;SDS011;11956;53.184;8.578;2022-07-05T01:20:55;5.40;;;4.30;;
23555;SDS011;11956;53.184;8.578;2022-07-05T01:23:56;5.30;;;3.95;;
23555;SDS011;11956;53.184;8.578;2022-07-05T01:26:58;4.88;;;3.65;;
23555;SDS011;11956;53.184;8.578;2022-07-05T01:29:59;7.47;;;4.07;;
23555;SDS011;11956;53.184;8.578;2022-07-05T01:33:01;7.38;;;4.40;;
23555;SDS011;11956;53.184;8.578;2022-07-05T01:36:03;5.82;;;4.05;;
23555;SDS011;11956;53.184;8.578;2022-07-05T01:39:05;6.10;;;3.80;;
23555;SDS011;11956;53.184;8.578;2022-07-05T01:42:07;4.77;;;4.20;;
23555;SDS011;11956;53.184;8.578;2022-07-05T01:45:08;6.30;;;4.45;;
23555;SDS011;11956;53.184;8.578;2022-07-05T01:48:13;5.50;;;4.35;;
23555;SDS011;11956;53.184;8.578;2022-07-05T01:51:20;6.95;;;4.50;;
23555;SDS011;11956;53.184;8.578;2022-07-05T01:54:34;7.00;;;4.82;;
23555;SDS011;11956;53.184;8.578;2022-07-05T01:57:36;6.18;;;5.22;;
23555;SDS011;11956;53.184;8.578;2022-07-05T02:00:46;8.63;;;4.93;;
23555;SDS011;11956;53.184;8.578;2022-07-05T02:03:49;9.60;;;5.53;;
23555;SDS011;11956;53.184;8.578;2022-07-05T02:06:51;6.63;;;4.75;;
23555;SDS011;11956;53.184;8.578;2022-07-05T02:09:52;8.50;;;5.45;;
23555;SDS011;11956;53.184;8.578;2022-07-05T02:12:53;8.68;;;5.40;;
23555;SDS011;11956;53.184;8.578;2022-07-05T02:15:54;7.95;;;5.97;;
23555;SDS011;11956;53.184;8.578;2022-07-05T02:18:56;5.88;;;5.25;;
23555;SDS011;11956;53.184;8.578;2022-07-05T02:21:58;9.07;;;5.82;;
23555;SDS011;11956;53.184;8.578;2022-07-05T02:25:00;8.13;;;5.97;;
23555;SDS011;11956;53.184;8.578;2022-07-05T02:28:01;8.15;;;5.90;;
23555;SDS011;11956;53.184;8.578;2022-07-05T02:31:04;7.90;;;5.82;;
23555;SDS011;11956;53.184;8.578;2022-07-05T02:34:05;8.63;;;6.30;;
23555;SDS011;11956;53.184;8.578;2022-07-05T02:37:06;7.32;;;5.72;;
23555;SDS011;11956;53.184;8.578;2022-07-05T02:40:08;7.57;;;5.97;;
23555;SDS011;11956;53.184;8.578;2022-07-05T02:43:15;9.10;;;6.30;;
23555;SDS011;11956;53.184;8.578;2022-07-05T02:46:16;10.77;;;5.85;;
23555;SDS011;11956;53.184;8.578;2022-07-05T02:49:18;9.52;;;6.30;;
23555;SDS011;11956;53.184;8.578;2022-07-05T02:52:20;8.77;;;6.13;;
23555;SDS011;11956;53.184;8.578;2022-07-05T02:55:21;7.50;;;6.13;;
23555;SDS011;11956;53.184;8.578;2022-07-05T02:58:22;8.25;;;6.57;;
23555;SDS011;11956;53.184;8.578;2022-07-05T03:01:26;7.30;;;6.30;;
23555;SDS011;11956;53.184;8.578;2022-07-05T03:04:27;9.95;;;6.45;;
23555;SDS011;11956;53.184;8.578;2022-07-05T03:07:31;8.82;;;6.68;;
23555;SDS011;11956;53.184;8.578;2022-07-05T03:10:33;7.07;;;6.25;;
23555;SDS011;11956;53.184;8.578;2022-07-05T03:13:38;9.68;;;6.40;;
23555;SDS011;11956;53.184;8.578;2022-07-05T03:16:39;9.38;;;7.00;;
23555;SDS011;11956;53.184;8.578;2022-07-05T03:19:41;7.38;;;6.53;;
23555;SDS011;11956;53.184;8.578;2022-07-05T03:22:45;11.10;;;6.82;;
23555;SDS011;11956;53.184;8.578;2022-07-05T03:25:46;8.60;;;6.78;;
23555;SDS011;11956;53.184;8.578;2022-07-05T03:28:47;10.40;;;6.68;;
23555;SDS011;11956;53.184;8.578;2022-07-05T03:31:48;9.38;;;7.05;;
23555;SDS011;11956;53.184;8.578;2022-07-05T03:34:49;8.20;;;7.13;;
23555;SDS011;11956;53.184;8.578;2022-07-05T03:37:52;8.40;;;6.78;;
23555;SDS011;11956;53.184;8.578;2022-07-05T03:40:54;11.60;;;6.90;;
23555;SDS011;11956;53.184;8.578;2022-07-05T03:43:58;10.90;;;6.60;;
23555;SDS011;11956;53.184;8.578;2022-07-05T03:47:00;9.57;;;6.53;;
23555;SDS011;11956;53.184;8.578;2022-07-05T03:50:03;9.48;;;6.53;;
23555;SDS011;11956;53.184;8.578;2022-07-05T03:53:05;9.70;;;6.60;;
23555;SDS011;11956;53.184;8.578;2022-07-05T03:56:06;10.05;;;6.65;;
23555;SDS011;11956;53.184;8.578;2022-07-05T03:59:08;7.88;;;5.40;;
23555;SDS011;11956;53.184;8.578;2022-07-05T04:02:10;7.63;;;5.28;;
23555;SDS011;11956;53.184;8.578;2022-07-05T04:05:12;6.43;;;4.85;;
23555;SDS011;11956;53.184;8.578;2022-07-05T04:08:15;6.67;;;4.77;;
23555;SDS011;11956;53.184;8.578;2022-07-05T04:11:19;6.80;;;4.63;;
23555;SDS011;11956;53.184;8.578;2022-07-05T04:14:23;4.47;;;3.75;;
23555;SDS011;11956;53.184;8.578;2022-07-05T04:17:26;5.25;;;3.65;;
23555;SDS011;11956;53.184;8.578;2022-07-05T04:20:29;4.25;;;3.22;;
23555;SDS011;11956;53.184;8.578;2022-07-05T04:23:32;5.22;;;3.50;;
23555;SDS011;11956;53.184;8.578;2022-07-05T04:26:33;3.80;;;3.03;;
23555;SDS011;11956;53.184;8.578;2022-07-05T04:29:34;4.38;;;3.15;;
23555;SDS011;11956;53.184;8.578;2022-07-05T04:32:36;4.13;;;2.80;;
23555;SDS011;11956;53.184;8.578;2022-07-05T04:35:38;4.00;;;2.60;;
23555;SDS011;11956;53.184;8.578;2022-07-05T04:38:39;6.90;;;2.72;;
23555;SDS011;11956;53.184;8.578;2022-07-05T04:41:41;5.20;;;2.55;;
23555;SDS011;11956;53.184;8.578;2022-07-05T04:44:45;4.40;;;2.60;;
23555;SDS011;11956;53.184;8.578;2022-07-05T04:47:47;5.00;;;2.28;;
23555;SDS011;11956;53.184;8.578;2022-07-05T04:50:48;3.58;;;2.40;;
23555;SDS011;11956;53.184;8.578;2022-07-05T04:53:50;3.90;;;2.92;;
23555;SDS011;11956;53.184;8.578;2022-07-05T04:56:51;5.40;;;2.97;;
23555;SDS011;11956;53.184;8.578;2022-07-05T04:59:52;5.65;;;2.72;;
23555;SDS011;11956;53.184;8.578;2022-07-05T05:02:53;3.92;;;2.15;;
23555;SDS011;11956;53.184;8.578;2022-07-05T05:05:54;3.38;;;2.10;;
23555;SDS011;11956;53.184;8.578;2022-07-05T05:08:56;3.90;;;2.35;;
23555;SDS011;11956;53.184;8.578;2022-07-05T05:11:57;7.40;;;2.80;;
23555;SDS011;11956;53.184;8.578;2022-07-05T05:14:58;3.90;;;1.80;;
23555;SDS011;11956;53.184;8.578;2022-07-05T05:17:59;3.13;;;1.75;;
23555;SDS011;11956;53.184;8.578;2022-07-05T05:21:00;6.25;;;2.42;;
23555;SDS011;11956;53.184;8.578;2022-07-05T05:24:01;4.45;;;2.03;;
23555;SDS011;11956;53.184;8.578;2022-07-05T05:27:02;4.57;;;1.65;;
23555;SDS011;11956;53.184;8.578;2022-07-05T05:30:04;3.97;;;2.50;;
23555;SDS011;11956;53.184;8.578;2022-07-05T05:33:05;4.63;;;3.10;;
23555;SDS011;11956;53.184;8.578;2022-07-05T05:36:06;3.20;;;2.10;;
23555;SDS011;11956;53.184;8.578;2022-07-05T05:39:08;4.32;;;2.20;;
23555;SDS011;11956;53.184;8.578;2022-07-05T05:42:09;5.20;;;2.55;;
23555;SDS011;11956;53.184;8.578;2022-07-05T05:45:10;3.92;;;2.00;;
23555;SDS011;11956;53.184;8.578;2022-07-05T05:48:11;2.95;;;1.90;;
23555;SDS011;11956;53.184;8.578;2022-07-05T05:51:13;2.13;;;1.70;;
23555;SDS011;11956;53.184;8.578;2022-07-05T05:54:14;3.17;;;1.95;;
23555;SDS011;11956;53.184;8.578;2022-07-05T05:57:15;5.65;;;2.33;;
23555;SDS011;11956;53.184;8.578;2022-07-05T06:00:16;5.50;;;2.35;;
23555;SDS011;11956;53.184;8.578;2022-07-05T06:03:22;4.60;;;2.00;;
23555;SDS011;11956;53.184;8.578;2022-07-05T06:06:25;4.63;;;2.30;;
23555;SDS011;11956;53.184;8.578;2022-07-05T06:09:27;4.47;;;1.70;;
23555;SDS011;11956;53.184;8.578;2022-07-05T06:12:28;2.72;;;1.60;;
23555;SDS011;11956;53.184;8.578;2022-07-05T06:15:30;12.05;;;2.78;;
23555;SDS011;11956;53.184;8.578;2022-07-05T06:18:31;3.50;;;1.88;;
23555;SDS011;11956;53.184;8.578;2022-07-05T06:21:32;3.83;;;1.83;;
23555;SDS011;11956;53.184;8.578;2022-07-05T06:24:33;3.30;;;1.75;;
23555;SDS011;11956;53.184;8.578;2022-07-05T06:27:41;5.03;;;2.05;;
23555;SDS011;11956;53.184;8.578;2022-07-05T06:30:47;2.58;;;1.63;;
23555;SDS011;11956;53.184;8.578;2022-07-05T06:33:48;4.65;;;2.20;;
23555;SDS011;11956;53.184;8.578;2022-07-05T06:36:49;4.53;;;1.60;;
23555;SDS011;11956;53.184;8.578;2022-07-05T06:39:50;3.38;;;1.55;;
23555;SDS011;11956;53.184;8.578;2022-07-05T06:42:51;3.50;;;1.73;;
23555;SDS011;11956;53.184;8.578;2022-07-05T06:45:57;3.33;;;1.73;;
23555;SDS011;11956;53.184;8.578;2022-07-05T06:48:59;2.58;;;1.55;;
23555;SDS011;11956;53.184;8.578;2022-07-05T06:52:00;3.72;;;1.73;;
23555;SDS011;11956;53.184;8.578;2022-07-05T06:55:01;2.97;;;1.58;;
23555;SDS011;11956;53.184;8.578;2022-07-05T06:58:04;3.65;;;1.33;;
23555;SDS011;11956;53.184;8.578;2022-07-05T07:01:07;3.08;;;1.45;;
23555;SDS011;11956;53.184;8.578;2022-07-05T07:04:08;2.95;;;1.17;;
23555;SDS011;11956;53.184;8.578;2022-07-05T07:07:09;2.83;;;1.20;;
23555;SDS011;11956;53.184;8.578;2022-07-05T07:10:29;5.15;;;1.10;;
23555;SDS011;11956;53.184;8.578;2022-07-05T07:13:30;1.80;;;0.95;;
23555;SDS011;11956;53.184;8.578;2022-07-05T07:16:31;2.60;;;0.80;;
23555;SDS011;11956;53.184;8.578;2022-07-05T07:19:32;4.53;;;0.82;;
23555;SDS011;11956;53.184;8.578;2022-07-05T07:22:33;3.15;;;1.02;;
23555;SDS011;11956;53.184;8.578;2022-07-05T07:25:35;1.35;;;0.80;;
23555;SDS011;11956;53.184;8.578;2022-07-05T07:28:36;4.97;;;1.00;;
23555;SDS011;11956;53.184;8.578;2022-07-05T07:31:37;1.80;;;0.68;;
23555;SDS011;11956;53.184;8.578;2022-07-05T07:34:38;2.13;;;0.82;;
23555;SDS011;11956;53.184;8.578;2022-07-05T07:37:39;4.22;;;0.90;;
23555;SDS011;11956;53.184;8.578;2022-07-05T07:40:41;4.80;;;0.90;;
23555;SDS011;11956;53.184;8.578;2022-07-05T07:43:42;3.80;;;0.65;;
23555;SDS011;11956;53.184;8.578;2022-07-05T07:46:43;4.90;;;0.50;;
23555;SDS011;11956;53.184;8.578;2022-07-05T07:49:45;2.47;;;0.70;;
23555;SDS011;11956;53.184;8.578;2022-07-05T07:52:46;4.53;;;0.80;;
23555;SDS011;11956;53.184;8.578;2022-07-05T07:55:48;3.13;;;0.70;;
23555;SDS011;11956;53.184;8.578;2022-07-05T07:58:49;2.63;;;0.70;;
23555;SDS011;11956;53.184;8.578;2022-07-05T08:01:50;1.48;;;0.40;;
23555;SDS011;11956;53.184;8.578;2022-07-05T08:04:52;1.40;;;0.40;;
23555;SDS011;11956;53.184;8.578;2022-07-05T08:07:53;3.35;;;0.75;;
23555;SDS011;11956;53.184;8.578;2022-07-05T08:10:54;3.22;;;0.40;;
23555;SDS011;11956;53.184;8.578;2022-07-05T08:13:55;2.33;;;0.52;;
23555;SDS011;11956;53.184;8.578;2022-07-05T08:16:56;0.60;;;0.30;;
23555;SDS011;11956;53.184;8.578;2022-07-05T08:19:58;3.60;;;0.43;;
23555;SDS011;11956;53.184;8.578;2022-07-05T08:23:18;2.30;;;0.57;;
23555;SDS011;11956;53.184;8.578;2022-07-05T08:26:19;2.97;;;0.63;;
23555;SDS011;11956;53.184;8.578;2022-07-05T08:29:20;1.27;;;0.30;;
23555;SDS011;11956;53.184;8.578;2022-07-05T08:32:22;1.67;;;0.47;;
23555;SDS011;11956;53.184;8.578;2022-07-05T08:35:23;2.67;;;0.60;;
23555;SDS011;11956;53.184;8.578;2022-07-05T08:38:25;1.20;;;0.30;;
23555;SDS011;11956;53.184;8.578;2022-07-05T08:41:26;1.08;;;0.40;;
23555;SDS011;11956;53.184;8.578;2022-07-05T08:44:29;4.10;;;0.60;;
23555;SDS011;11956;53.184;8.578;2022-07-05T08:47:35;1.50;;;0.45;;
23555;SDS011;11956;53.184;8.578;2022-07-05T08:50:39;1.45;;;0.50;;
23555;SDS011;11956;53.184;8.578;2022-07-05T08:53:41;4.00;;;0.60;;
23555;SDS011;11956;53.184;8.578;2022-07-05T08:56:42;2.40;;;0.47;;
23555;SDS011;11956;53.184;8.578;2022-07-05T08:59:46;2.83;;;0.50;;
23555;SDS011;11956;53.184;8.578;2022-07-05T09:02:47;2.67;;;0.60;;
23555;SDS011;11956;53.184;8.578;2022-07-05T09:05:51;4.90;;;0.60;;
23555;SDS011;11956;53.184;8.578;2022-07-05T09:08:56;2.33;;;0.47;;
23555;SDS011;11956;53.184;8.578;2022-07-05T09:11:59;4.30;;;1.65;;
23555;SDS011;11956;53.184;8.578;2022-07-05T09:15:00;3.80;;;0.70;;
23555;SDS011;11956;53.184;8.578;2022-07-05T09:18:02;3.05;;;0.65;;
23555;SDS011;11956;53.184;8.578;2022-07-05T09:21:11;5.53;;;1.10;;
23555;SDS011;11956;53.184;8.578;2022-07-05T09:24:13;1.40;;;0.30;;
23555;SDS011;11956;53.184;8.578;2022-07-05T09:27:15;1.85;;;0.63;;
23555;SDS011;11956;53.184;8.578;2022-07-05T09:30:27;1.15;;;0.50;;
23555;SDS011;11956;53.184;8.578;2022-07-05T09:33:34;1.60;;;0.40;;
23555;SDS011;11956;53.184;8.578;2022-07-05T09:39:58;3.08;;;0.60;;
23555;SDS011;11956;53.184;8.578;2022-07-05T09:43:15;3.58;;;0.60;;
23555;SDS011;11956;53.184;8.578;2022-07-05T09:46:18;1.88;;;0.60;;
23555;SDS011;11956;53.184;8.578;2022-07-05T09:49:31;4.90;;;0.50;;
23555;SDS011;11956;53.184;8.578;2022-07-05T09:55:34;2.35;;;0.60;;
23555;SDS011;11956;53.184;8.578;2022-07-05T09:58:35;2.53;;;0.80;;
23555;SDS011;11956;53.184;8.578;2022-07-05T10:01:37;2.58;;;0.65;;
23555;SDS011;11956;53.184;8.578;2022-07-05T10:04:40;1.63;;;0.73;;
23555;SDS011;11956;53.184;8.578;2022-07-05T10:07:42;3.30;;;0.68;;
23555;SDS011;11956;53.184;8.578;2022-07-05T10:10:46;3.45;;;0.95;;
23555;SDS011;11956;53.184;8.578;2022-07-05T10:13:50;4.38;;;0.90;;
23555;SDS011;11956;53.184;8.578;2022-07-05T10:16:57;6.32;;;1.20;;
23555;SDS011;11956;53.184;8.578;2022-07-05T10:20:02;4.97;;;0.80;;
23555;SDS011;11956;53.184;8.578;2022-07-05T10:23:14;3.03;;;0.60;;
23555;SDS011;11956;53.184;8.578;2022-07-05T10:26:17;3.35;;;0.80;;
23555;SDS011;11956;53.184;8.578;2022-07-05T10:29:18;5.53;;;0.80;;
23555;SDS011;11956;53.184;8.578;2022-07-05T10:32:20;2.67;;;0.50;;
23555;SDS011;11956;53.184;8.578;2022-07-05T10:35:24;4.72;;;0.90;;
23555;SDS011;11956;53.184;8.578;2022-07-05T10:38:25;4.68;;;0.77;;
23555;SDS011;11956;53.184;8.578;2022-07-05T10:41:27;4.47;;;0.75;;
23555;SDS011;11956;53.184;8.578;2022-07-05T10:44:31;2.58;;;0.60;;
23555;SDS011;11956;53.184;8.578;2022-07-05T10:47:34;2.38;;;0.52;;
23555;SDS011;11956;53.184;8.578;2022-07-05T10:54:00;2.42;;;0.40;;
23555;SDS011;11956;53.184;8.578;2022-07-05T10:57:36;2.25;;;0.63;;
23555;SDS011;11956;53.184;8.578;2022-07-05T11:00:31;1.20;;;0.57;;
23555;SDS011;11956;53.184;8.578;2022-07-05T11:03:32;3.05;;;0.60;;
23555;SDS011;11956;53.184;8.578;2022-07-05T11:06:44;2.55;;;0.50;;
23555;SDS011;11956;53.184;8.578;2022-07-05T11:09:59;2.65;;;0.40;;
23555;SDS011;11956;53.184;8.578;2022-07-05T11:13:19;3.47;;;0.67;;
23555;SDS011;11956;53.184;8.578;2022-07-05T11:16:40;2.65;;;0.60;;
23555;SDS011;11956;53.184;8.578;2022-07-05T11:20:42;1.42;;;0.47;;
23555;SDS011;11956;53.184;8.578;2022-07-05T11:23:26;2.63;;;0.60;;
23555;SDS011;11956;53.184;8.578;2022-07-05T11:26:28;3.03;;;0.60;;
23555;SDS011;11956;53.184;8.578;2022-07-05T11:32:54;2.97;;;0.80;;
23555;SDS011;11956;53.184;8.578;2022-07-05T11:35:55;1.85;;;0.60;;
23555;SDS011;11956;53.184;8.578;2022-07-05T11:39:10;1.65;;;0.47;;
23555;SDS011;11956;53.184;8.578;2022-07-05T11:42:20;4.57;;;0.70;;
23555;SDS011;11956;53.184;8.578;2022-07-05T11:45:22;2.72;;;0.68;;
23555;SDS011;11956;53.184;8.578;2022-07-05T11:48:25;2.63;;;0.50;;
23555;SDS011;11956;53.184;8.578;2022-07-05T11:51:30;4.13;;;0.52;;
23555;SDS011;11956;53.184;8.578;2022-07-05T11:54:31;2.10;;;1.02;;
23555;SDS011;11956;53.184;8.578;2022-07-05T11:57:33;2.75;;;0.47;;
23555;SDS011;11956;53.184;8.578;2022-07-05T12:00:35;6.32;;;1.33;;
23555;SDS011;11956;53.184;8.578;2022-07-05T12:03:37;4.35;;;0.82;;
23555;SDS011;11956;53.184;8.578;2022-07-05T12:06:42;4.95;;;0.90;;
23555;SDS011;11956;53.184;8.578;2022-07-05T12:09:43;1.55;;;0.30;;
23555;SDS011;11956;53.184;8.578;2022-07-05T12:13:08;2.13;;;0.70;;
23555;SDS011;11956;53.184;8.578;2022-07-05T12:16:10;3.90;;;0.70;;
23555;SDS011;11956;53.184;8.578;2022-07-05T12:19:12;1.15;;;0.50;;
23555;SDS011;11956;53.184;8.578;2022-07-05T12:22:29;1.48;;;0.70;;
23555;SDS011;11956;53.184;8.578;2022-07-05T12:25:38;2.15;;;0.60;;
23555;SDS011;11956;53.184;8.578;2022-07-05T12:28:43;2.13;;;0.55;;
23555;SDS011;11956;53.184;8.578;2022-07-05T12:32:18;1.55;;;0.70;;
23555;SDS011;11956;53.184;8.578;2022-07-05T12:35:26;1.30;;;0.60;;
23555;SDS011;11956;53.184;8.578;2022-07-05T12:38:40;6.50;;;0.60;;
23555;SDS011;11956;53.184;8.578;2022-07-05T12:41:42;1.20;;;0.50;;
23555;SDS011;11956;53.184;8.578;2022-07-05T12:44:44;3.05;;;0.60;;
23555;SDS011;11956;53.184;8.578;2022-07-05T12:47:54;7.57;;;0.60;;
23555;SDS011;11956;53.184;8.578;2022-07-05T12:50:57;1.05;;;0.32;;
23555;SDS011;11956;53.184;8.578;2022-07-05T12:53:59;2.97;;;0.55;;
23555;SDS011;11956;53.184;8.578;2022-07-05T12:57:18;2.67;;;0.77;;
23555;SDS011;11956;53.184;8.578;2022-07-05T13:00:38;3.85;;;0.60;;
23555;SDS011;11956;53.184;8.578;2022-07-05T13:07:01;4.40;;;0.60;;
23555;SDS011;11956;53.184;8.578;2022-07-05T13:10:18;4.38;;;0.73;;
23555;SDS011;11956;53.184;8.578;2022-07-05T13:13:22;2.63;;;0.60;;
23555;SDS011;11956;53.184;8.578;2022-07-05T13:16:23;5.15;;;0.88;;
23555;SDS011;11956;53.184;8.578;2022-07-05T13:19:24;2.88;;;0.70;;
23555;SDS011;11956;53.184;8.578;2022-07-05T13:29:58;4.18;;;0.90;;
23555;SDS011;11956;53.184;8.578;2022-07-05T13:32:59;4.82;;;0.80;;
23555;SDS011;11956;53.184;8.578;2022-07-05T13:36:00;5.75;;;1.10;;
23555;SDS011;11956;53.184;8.578;2022-07-05T13:39:01;1.98;;;0.50;;
23555;SDS011;11956;53.184;8.578;2022-07-05T13:42:03;2.90;;;0.80;;
23555;SDS011;11956;53.184;8.578;2022-07-05T13:45:05;2.65;;;0.60;;
23555;SDS011;11956;53.184;8.578;2022-07-05T13:48:07;3.38;;;0.77;;
23555;SDS011;11956;53.184;8.578;2022-07-05T13:51:09;2.75;;;0.65;;
23555;SDS011;11956;53.184;8.578;2022-07-05T13:54:10;5.82;;;0.90;;
23555;SDS011;11956;53.184;8.578;2022-07-05T13:57:11;2.75;;;0.60;;
23555;SDS011;11956;53.184;8.578;2022-07-05T14:00:13;2.40;;;0.68;;
23555;SDS011;11956;53.184;8.578;2022-07-05T14:03:14;3.13;;;0.70;;
23555;SDS011;11956;53.184;8.578;2022-07-05T14:06:16;5.20;;;0.75;;
23555;SDS011;11956;53.184;8.578;2022-07-05T14:09:17;4.45;;;0.77;;
23555;SDS011;11956;53.184;8.578;2022-07-05T14:12:18;9.65;;;1.70;;
23555;SDS011;11956;53.184;8.578;2022-07-05T14:15:19;2.50;;;0.50;;
23555;SDS011;11956;53.184;8.578;2022-07-05T14:18:20;3.60;;;0.93;;
23555;SDS011;11956;53.184;8.578;2022-07-05T14:21:24;6.30;;;0.70;;
23555;SDS011;11956;53.184;8.578;2022-07-05T14:24:25;4.10;;;0.77;;
23555;SDS011;11956;53.184;8.578;2022-07-05T14:27:26;6.68;;;1.08;;
23555;SDS011;11956;53.184;8.578;2022-07-05T14:30:28;3.55;;;0.90;;
23555;SDS011;11956;53.184;8.578;2022-07-05T14:33:29;6.65;;;0.80;;
23555;SDS011;11956;53.184;8.578;2022-07-05T14:36:30;8.32;;;0.90;;
23555;SDS011;11956;53.184;8.578;2022-07-05T14:39:31;3.33;;;0.90;;
23555;SDS011;11956;53.184;8.578;2022-07-05T14:42:32;4.30;;;0.77;;
23555;SDS011;11956;53.184;8.578;2022-07-05T14:45:33;5.47;;;0.90;;
23555;SDS011;11956;53.184;8.578;2022-07-05T14:48:35;4.70;;;0.70;;
23555;SDS011;11956;53.184;8.578;2022-07-05T14:51:36;3.83;;;0.90;;
23555;SDS011;11956;53.184;8.578;2022-07-05T14:54:37;9.15;;;1.00;;
23555;SDS011;11956;53.184;8.578;2022-07-05T14:57:38;5.60;;;2.67;;
23555;SDS011;11956;53.184;8.578;2022-07-05T15:00:40;3.33;;;0.70;;
23555;SDS011;11956;53.184;8.578;2022-07-05T15:03:41;4.60;;;0.90;;
23555;SDS011;11956;53.184;8.578;2022-07-05T15:06:45;2.45;;;0.65;;
23555;SDS011;11956;53.184;8.578;2022-07-05T15:09:47;2.70;;;0.90;;
23555;SDS011;11956;53.184;8.578;2022-07-05T15:12:48;2.65;;;0.40;;
23555;SDS011;11956;53.184;8.578;2022-07-05T15:15:49;4.05;;;0.68;;
23555;SDS011;11956;53.184;8.578;2022-07-05T15:18:51;2.45;;;0.60;;
23555;SDS011;11956;53.184;8.578;2022-07-05T15:21:53;2.10;;;0.60;;
23555;SDS011;11956;53.184;8.578;2022-07-05T15:24:54;2.45;;;0.70;;
23555;SDS011;11956;53.184;8.578;2022-07-05T15:27:55;3.95;;;0.90;;
23555;SDS011;11956;53.184;8.578;2022-07-05T15:30:56;5.65;;;0.70;;
23555;SDS011;11956;53.184;8.578;2022-07-05T15:33:57;5.68;;;0.80;;
23555;SDS011;11956;53.184;8.578;2022-07-05T15:36:59;4.15;;;0.70;;
23555;SDS011;11956;53.184;8.578;2022-07-05T15:40:00;2.33;;;0.50;;
23555;SDS011;11956;53.184;8.578;2022-07-05T15:43:03;4.88;;;0.90;;
23555;SDS011;11956;53.184;8.578;2022-07-05T15:46:04;2.88;;;0.50;;
23555;SDS011;11956;53.184;8.578;2022-07-05T15:49:05;4.57;;;0.73;;
23555;SDS011;11956;53.184;8.578;2022-07-05T15:52:06;2.58;;;0.60;;
23555;SDS011;11956;53.184;8.578;2022-07-05T15:55:08;2.85;;;0.60;;
23555;SDS011;11956;53.184;8.578;2022-07-05T15:58:10;4.57;;;0.85;;
23555;SDS011;11956;53.184;8.578;2022-07-05T16:01:11;5.00;;;0.88;;
23555;SDS011;11956;53.184;8.578;2022-07-05T16:04:12;3.17;;;0.77;;
23555;SDS011;11956;53.184;8.578;2022-07-05T16:07:13;3.35;;;0.55;;
23555;SDS011;11956;53.184;8.578;2022-07-05T16:10:15;2.80;;;0.60;;
23555;SDS011;11956;53.184;8.578;2022-07-05T16:13:16;2.97;;;0.60;;
23555;SDS011;11956;53.184;8.578;2022-07-05T16:16:19;3.72;;;0.52;;
23555;SDS011;11956;53.184;8.578;2022-07-05T16:19:20;3.70;;;0.70;;
23555;SDS011;11956;53.184;8.578;2022-07-05T16:22:21;5.22;;;0.90;;
23555;SDS011;11956;53.184;8.578;2022-07-05T16:25:22;2.88;;;0.63;;
23555;SDS011;11956;53.184;8.578;2022-07-05T16:28:23;4.30;;;0.70;;
23555;SDS011;11956;53.184;8.578;2022-07-05T16:31:24;3.30;;;0.60;;
23555;SDS011;11956;53.184;8.578;2022-07-05T16:34:27;3.13;;;0.63;;
23555;SDS011;11956;53.184;8.578;2022-07-05T16:37:28;2.42;;;0.60;;
23555;SDS011;11956;53.184;8.578;2022-07-05T16:40:29;5.45;;;0.68;;
23555;SDS011;11956;53.184;8.578;2022-07-05T16:43:30;1.60;;;0.60;;
23555;SDS011;11956;53.184;8.578;2022-07-05T16:46:33;2.85;;;0.70;;
23555;SDS011;11956;53.184;8.578;2022-07-05T16:49:34;4.38;;;0.80;;
23555;SDS011;11956;53.184;8.578;2022-07-05T16:52:35;2.90;;;0.80;;
23555;SDS011;11956;53.184;8.578;2022-07-05T16:55:39;5.03;;;0.50;;
23555;SDS011;11956;53.184;8.578;2022-07-05T16:58:42;3.30;;;0.60;;
23555;SDS011;11956;53.184;8.578;2022-07-05T17:01:48;3.22;;;0.65;;
23555;SDS011;11956;53.184;8.578;2022-07-05T17:04:50;4.38;;;0.93;;
23555;SDS011;11956;53.184;8.578;2022-07-05T17:07:51;3.67;;;0.65;;
23555;SDS011;11956;53.184;8.578;2022-07-05T17:10:55;4.57;;;1.00;;
23555;SDS011;11956;53.184;8.578;2022-07-05T17:13:56;3.15;;;1.42;;
23555;SDS011;11956;53.184;8.578;2022-07-05T17:16:57;4.32;;;1.40;;
23555;SDS011;11956;53.184;8.578;2022-07-05T17:19:58;4.50;;;0.85;;
23555;SDS011;11956;53.184;8.578;2022-07-05T17:22:59;2.80;;;0.50;;
23555;SDS011;11956;53.184;8.578;2022-07-05T17:26:00;2.63;;;0.50;;
23555;SDS011;11956;53.184;8.578;2022-07-05T17:29:02;4.72;;;0.80;;
23555;SDS011;11956;53.184;8.578;2022-07-05T17:32:04;4.55;;;0.63;;
23555;SDS011;11956;53.184;8.578;2022-07-05T17:35:06;5.43;;;0.90;;
23555;SDS011;11956;53.184;8.578;2022-07-05T17:38:07;4.75;;;0.70;;
23555;SDS011;11956;53.184;8.578;2022-07-05T17:41:09;3.80;;;1.00;;
23555;SDS011;11956;53.184;8.578;2022-07-05T17:44:13;1.83;;;0.75;;
23555;SDS011;11956;53.184;8.578;2022-07-05T17:47:14;4.50;;;0.80;;
23555;SDS011;11956;53.184;8.578;2022-07-05T17:50:15;6.65;;;1.20;;
23555;SDS011;11956;53.184;8.578;2022-07-05T17:53:16;2.25;;;0.70;;
23555;SDS011;11956;53.184;8.578;2022-07-05T17:56:18;2.50;;;0.75;;
23555;SDS011;11956;53.184;8.578;2022-07-05T17:59:19;5.95;;;0.98;;
23555;SDS011;11956;53.184;8.578;2022-07-05T18:02:20;1.83;;;0.60;;
23555;SDS011;11956;53.184;8.578;2022-07-05T18:05:21;5.57;;;0.93;;
23555;SDS011;11956;53.184;8.578;2022-07-05T18:08:22;5.15;;;0.75;;
23555;SDS011;11956;53.184;8.578;2022-07-05T18:11:23;5.10;;;1.50;;
23555;SDS011;11956;53.184;8.578;2022-07-05T18:14:24;2.38;;;0.50;;
23555;SDS011;11956;53.184;8.578;2022-07-05T18:17:26;3.28;;;0.50;;
23555;SDS011;11956;53.184;8.578;2022-07-05T18:20:27;5.00;;;0.80;;
23555;SDS011;11956;53.184;8.578;2022-07-05T18:23:28;3.17;;;1.05;;
23555;SDS011;11956;53.184;8.578;2022-07-05T18:26:29;2.03;;;0.70;;
23555;SDS011;11956;53.184;8.578;2022-07-05T18:29:30;2.42;;;0.60;;
23555;SDS011;11956;53.184;8.578;2022-07-05T18:32:33;4.50;;;0.70;;
23555;SDS011;11956;53.184;8.578;2022-07-05T18:35:34;4.00;;;0.73;;
23555;SDS011;11956;53.184;8.578;2022-07-05T18:38:36;2.60;;;0.70;;
23555;SDS011;11956;53.184;8.578;2022-07-05T18:41:38;3.05;;;0.90;;
23555;SDS011;11956;53.184;8.578;2022-07-05T18:44:39;2.65;;;0.80;;
23555;SDS011;11956;53.184;8.578;2022-07-05T18:47:40;3.95;;;0.82;;
23555;SDS011;11956;53.184;8.578;2022-07-05T18:50:41;3.47;;;1.05;;